Alma, New York
Current Conditions -  °F | °C
As of 12:56 AM on Monday 22 Dec 2014 (Local Time) from KELZ Reporting Station
Overcast Overcast  
Wind Chill: 16°   Ceiling: 800
Heat Index: 24°   Visibility: 10mi
Dew Point: 20°   Wind: 7mph
Humidity: 84%   Direction: 150°SSE
Pressure: 30.2"   Gusts: NA
Location:  42.01°N, 78.06°W
Report Text: KELZ 220556Z AUTO 15006KT 10SM OVC008 M04/M07 A3020 RMK AO2 SLP259 T10441067 11039 21044 58005
Loading
Personal Weather Stations






























Interactive Weather Map New forecast layout! Learn more

10-Day Weather Forecast

Advertisements
Track Severe Weather on mobile